Time;durP1;ratioP1;P1;durP2;ratioP2;P2;SDS_P1;SDS_P2;PMS_P1;PMS_P2;Temp;Humidity;BMP_temperature;BMP_pressure;BME280_temperature;BME280_humidity;BME280_pressure;Samples;Min_cycle;Max_cycle;Signal;HPM_P1;HPM_P2
2023/04/16 00:02:12;;;;;;;5.30;1.02;;;9.90;99.90;;;;;;5112341;28;20228;-72
2023/04/16 00:04:39;;;;;;;1.02;0.93;;;9.90;99.90;;;;;;5111933;28;20236;-73
2023/04/16 00:07:06;;;;;;;2.45;1.40;;;9.90;99.90;;;;;;5112235;28;20201;-73
2023/04/16 00:09:33;;;;;;;1.92;1.13;;;9.80;99.90;;;;;;5111889;28;20261;-74
2023/04/16 00:12:00;;;;;;;2.70;1.37;;;9.80;99.90;;;;;;5112338;28;20243;-76
2023/04/16 00:14:29;;;;;;;4.00;1.03;;;9.70;99.90;;;;;;5112035;28;20205;-76
2023/04/16 00:16:56;;;;;;;4.47;1.03;;;9.70;99.90;;;;;;5112207;28;20237;-74
2023/04/16 00:19:23;;;;;;;2.80;0.97;;;9.60;99.90;;;;;;5112334;28;20235;-77
2023/04/16 00:21:50;;;;;;;1.43;0.90;;;9.50;99.90;;;;;;5112268;28;20287;-77
2023/04/16 00:24:16;;;;;;;8.07;1.30;;;9.40;99.90;;;;;;5111843;28;20601;-77
2023/04/16 00:26:45;;;;;;;2.67;1.60;;;9.40;99.90;;;;;;5111935;28;20232;-78
2023/04/16 00:29:12;;;;;;;4.13;0.93;;;9.30;99.90;;;;;;5112115;28;20204;-74
2023/04/16 00:31:40;;;;;;;6.03;1.87;;;9.30;99.90;;;;;;5111325;28;20236;-74
2023/04/16 00:34:07;;;;;;;2.67;0.90;;;9.40;99.90;;;;;;5112111;28;20204;-74
2023/04/16 00:36:34;;;;;;;2.43;1.20;;;9.40;99.90;;;;;;5111637;28;20236;-78
2023/04/16 00:39:01;;;;;;;5.47;1.20;;;9.40;99.90;;;;;;5111703;28;20237;-72
2023/04/16 00:41:28;;;;;;;3.13;1.20;;;9.30;99.90;;;;;;5111525;28;20289;-75
2023/04/16 00:43:54;;;;;;;4.00;0.93;;;9.30;99.90;;;;;;5111958;28;20268;-76
2023/04/16 00:46:23;;;;;;;3.33;1.23;;;9.20;99.90;;;;;;5112052;28;20644;-75
2023/04/16 00:48:52;;;;;;;2.50;1.57;;;9.10;99.90;;;;;;5112239;28;20207;-75
2023/04/16 00:51:20;;;;;;;2.43;1.43;;;9.10;99.90;;;;;;5111805;28;20240;-73
2023/04/16 00:53:47;;;;;;;7.77;1.00;;;9.20;99.90;;;;;;5110943;28;20204;-73
2023/04/16 00:56:15;;;;;;;2.23;1.23;;;9.20;99.90;;;;;;5111136;28;20254;-73
2023/04/16 00:58:42;;;;;;;5.33;2.30;;;9.10;99.90;;;;;;5111094;28;20240;-74
2023/04/16 01:01:09;;;;;;;3.33;1.60;;;9.10;99.90;;;;;;5111510;28;20240;-73
2023/04/16 01:03:39;;;;;;;3.20;1.10;;;9.20;99.90;;;;;;5111057;28;20746;-74
2023/04/16 01:06:08;;;;;;;4.77;1.57;;;9.10;99.90;;;;;;5111243;28;20236;-74
2023/04/16 01:08:35;;;;;;;7.40;2.40;;;9.10;99.90;;;;;;5110900;28;20207;-74
2023/04/16 01:11:02;;;;;;;2.90;0.90;;;9.10;99.90;;;;;;5111185;28;20285;-75
2023/04/16 01:13:29;;;;;;;2.37;1.37;;;9.20;99.90;;;;;;5111063;28;20664;-77
2023/04/16 01:15:56;;;;;;;3.83;1.40;;;9.20;99.90;;;;;;5111638;28;20207;-76
2023/04/16 01:18:24;;;;;;;6.10;1.50;;;9.20;99.90;;;;;;5111699;28;20200;-77
2023/04/16 01:20:52;;;;;;;4.27;1.27;;;9.20;99.90;;;;;;5111676;28;20205;-75
2023/04/16 01:23:20;;;;;;;1.20;0.90;;;9.10;99.90;;;;;;5111130;28;20264;-76
2023/04/16 01:25:47;;;;;;;1.73;0.83;;;9.10;99.90;;;;;;5110903;28;20288;-76
2023/04/16 01:28:14;;;;;;;8.47;3.77;;;9.10;99.90;;;;;;5111298;28;20649;-76
2023/04/16 01:30:41;;;;;;;2.97;1.20;;;9.00;99.90;;;;;;5111001;28;20235;-74
2023/04/16 01:33:10;;;;;;;3.43;1.10;;;9.00;99.90;;;;;;5111200;28;20626;-75
2023/04/16 01:35:37;;;;;;;2.67;1.23;;;9.00;99.90;;;;;;5110534;28;20236;-74
2023/04/16 01:38:06;;;;;;;2.50;1.30;;;8.90;99.90;;;;;;5111095;28;20248;-74
2023/04/16 01:40:33;;;;;;;3.20;1.13;;;8.80;99.90;;;;;;5110741;28;20240;-74
2023/04/16 01:43:00;;;;;;;5.70;1.17;;;8.80;99.90;;;;;;5111020;28;20239;-74
2023/04/16 01:45:27;;;;;;;3.10;1.53;;;8.70;99.90;;;;;;5110791;28;20228;-74
2023/04/16 01:47:54;;;;;;;2.73;1.00;;;8.70;99.90;;;;;;5111281;28;20236;-75
2023/04/16 01:50:22;;;;;;;3.23;1.30;;;8.70;99.90;;;;;;5110984;28;20240;-74
2023/04/16 01:52:49;;;;;;;2.70;1.40;;;8.70;99.90;;;;;;5111006;28;20207;-74
2023/04/16 01:55:18;;;;;;;2.30;1.40;;;8.60;99.90;;;;;;5110991;28;20229;-74
2023/04/16 01:57:45;;;;;;;1.60;1.00;;;8.70;99.90;;;;;;5110789;28;20209;-74
2023/04/16 02:00:12;;;;;;;6.03;1.20;;;8.60;99.90;;;;;;5110983;28;20243;-74
2023/04/16 02:02:39;;;;;;;4.97;2.17;;;8.60;99.90;;;;;;5110543;28;20233;-74
2023/04/16 02:05:07;;;;;;;3.37;2.03;;;8.60;99.90;;;;;;5110562;28;20324;-74
2023/04/16 02:07:34;;;;;;;3.40;1.47;;;8.60;99.90;;;;;;5110860;28;20680;-74
2023/04/16 02:10:00;;;;;;;5.33;1.47;;;8.50;99.90;;;;;;5114781;28;20197;-74
2023/04/16 02:12:29;;;;;;;2.77;1.47;;;8.60;99.90;;;;;;5114323;28;20676;-75
2023/04/16 02:14:56;;;;;;;4.23;1.60;;;8.50;99.90;;;;;;5114755;28;20273;-73
2023/04/16 02:17:23;;;;;;;2.87;1.47;;;8.50;99.90;;;;;;5115024;28;20239;-74
2023/04/16 02:19:50;;;;;;;3.67;1.33;;;8.40;99.90;;;;;;5114278;28;20281;-73
2023/04/16 02:22:17;;;;;;;5.30;1.77;;;8.60;99.90;;;;;;5114697;28;20228;-73
2023/04/16 02:24:44;;;;;;;4.90;1.53;;;8.60;99.90;;;;;;5113988;28;20275;-74
2023/04/16 02:27:11;;;;;;;1.60;1.50;;;8.60;99.90;;;;;;5114353;28;20201;-73
2023/04/16 02:29:39;;;;;;;5.40;1.60;;;8.60;99.90;;;;;;5114077;28;20228;-73
2023/04/16 02:32:06;;;;;;;2.07;0.90;;;8.60;99.90;;;;;;5114262;28;20208;-72
2023/04/16 02:34:34;;;;;;;4.50;1.60;;;8.50;99.90;;;;;;5113846;28;20581;-73
2023/04/16 02:37:01;;;;;;;2.80;1.80;;;8.40;99.90;;;;;;5114359;28;20292;-73
2023/04/16 02:39:28;;;;;;;4.33;1.40;;;8.40;99.90;;;;;;5113943;28;20233;-73
2023/04/16 02:41:55;;;;;;;2.20;1.70;;;8.60;99.90;;;;;;5114250;28;20205;-73
2023/04/16 02:44:22;;;;;;;4.90;1.33;;;8.50;99.90;;;;;;5114355;28;20324;-73
2023/04/16 02:46:50;;;;;;;3.30;1.50;;;8.30;99.90;;;;;;5113726;28;20243;-73
2023/04/16 02:49:17;;;;;;;4.00;1.67;;;8.40;99.90;;;;;;5113956;28;20293;-73
2023/04/16 02:51:44;;;;;;;6.43;1.73;;;8.40;99.90;;;;;;5113545;28;20244;-75
2023/04/16 02:54:11;;;;;;;3.70;1.50;;;8.30;99.90;;;;;;5113705;28;20220;-75
2023/04/16 02:56:37;;;;;;;2.10;1.17;;;8.30;99.90;;;;;;5113609;28;20228;-75
2023/04/16 02:59:04;;;;;;;3.47;1.03;;;8.30;99.90;;;;;;5113830;28;20270;-75
2023/04/16 03:01:31;;;;;;;2.93;1.33;;;8.20;99.90;;;;;;5113355;28;20361;-75
2023/04/16 03:04:00;;;;;;;5.93;1.97;;;8.20;99.90;;;;;;5113643;28;20268;-73
2023/04/16 03:06:27;;;;;;;3.60;1.50;;;8.40;99.90;;;;;;5113065;28;20744;-74
2023/04/16 03:08:53;;;;;;;4.30;1.77;;;8.40;99.90;;;;;;5113915;28;20596;-74
2023/04/16 03:11:20;;;;;;;3.83;1.30;;;8.40;99.90;;;;;;5113823;28;20243;-74
2023/04/16 03:13:47;;;;;;;5.27;1.87;;;8.40;99.90;;;;;;5113105;28;20745;-74
2023/04/16 03:16:14;;;;;;;2.30;1.90;;;8.20;99.90;;;;;;5113343;28;20236;-72
2023/04/16 03:18:41;;;;;;;3.37;1.20;;;8.30;99.90;;;;;;5112430;28;20205;-73
2023/04/16 03:21:12;;;;;;;4.97;2.53;;;8.30;99.90;;;;;;5113347;27;20229;-74
2023/04/16 03:23:39;;;;;;;5.40;1.90;;;8.20;99.90;;;;;;5112620;28;20228;-73
2023/04/16 03:26:06;;;;;;;2.60;1.47;;;8.10;99.90;;;;;;5112983;28;20193;-73
2023/04/16 03:28:33;;;;;;;6.27;1.93;;;8.00;99.90;;;;;;5112628;28;20633;-73
2023/04/16 03:31:00;;;;;;;3.50;1.30;;;8.00;99.90;;;;;;5113179;28;20236;-73
2023/04/16 03:33:27;;;;;;;2.90;1.20;;;8.00;99.90;;;;;;5112390;28;20257;-72
2023/04/16 03:35:57;;;;;;;3.03;1.13;;;8.00;99.90;;;;;;5113000;28;20250;-72
2023/04/16 03:38:26;;;;;;;3.03;1.30;;;7.90;99.90;;;;;;5113131;28;20225;-73
2023/04/16 03:40:53;;;;;;;1.67;1.20;;;8.00;99.90;;;;;;5112932;28;20664;-72
2023/04/16 03:43:20;;;;;;;9.03;1.93;;;7.90;99.90;;;;;;5112602;28;20257;-72
2023/04/16 03:45:47;;;;;;;5.00;2.07;;;8.10;99.90;;;;;;5112535;28;20603;-73
2023/04/16 03:48:14;;;;;;;5.10;2.10;;;8.00;99.90;;;;;;5112355;28;20736;-73
2023/04/16 03:50:45;;;;;;;15.17;3.03;;;8.00;99.90;;;;;;5112687;28;20604;-72
2023/04/16 03:53:12;;;;;;;7.53;3.80;;;8.00;99.90;;;;;;5112710;28;20224;-75
2023/04/16 03:55:40;;;;;;;5.47;2.20;;;8.00;99.90;;;;;;5111870;28;20204;-74
2023/04/16 03:58:08;;;;;;;7.53;2.80;;;7.90;99.90;;;;;;5112764;28;20229;-73
2023/04/16 04:00:35;;;;;;;8.73;2.13;;;7.90;99.90;;;;;;5112062;28;20200;-73
2023/04/16 04:03:01;;;;;;;4.40;1.57;;;7.90;99.90;;;;;;5112465;28;20243;-73
2023/04/16 04:05:28;;;;;;;1.67;1.50;;;7.90;99.90;;;;;;5112089;28;20272;-74
2023/04/16 04:07:55;;;;;;;4.33;1.90;;;7.90;99.90;;;;;;5111926;28;20247;-74
2023/04/16 04:10:22;;;;;;;1.93;1.40;;;7.80;99.90;;;;;;5112762;28;20237;-73
2023/04/16 04:12:51;;;;;;;2.40;1.43;;;7.90;99.90;;;;;;5111692;28;20215;-74
2023/04/16 04:15:19;;;;;;;1.77;0.90;;;8.00;99.90;;;;;;5101981;28;20210;-74
2023/04/16 04:17:47;;;;;;;1.77;1.60;;;7.80;99.90;;;;;;5091408;28;20297;-76
2023/04/16 04:20:14;;;;;;;8.80;2.47;;;7.90;99.90;;;;;;5091409;28;20201;-73
2023/04/16 04:22:41;;;;;;;3.40;1.43;;;7.90;99.90;;;;;;5091104;28;20667;-73
2023/04/16 04:25:09;;;;;;;2.80;2.17;;;7.70;99.90;;;;;;5091912;28;20269;-74
2023/04/16 04:27:37;;;;;;;4.03;2.27;;;7.80;99.90;;;;;;5091492;28;20229;-73
2023/04/16 04:30:06;;;;;;;4.17;1.93;;;7.70;99.90;;;;;;5090635;28;20210;-73
2023/04/16 04:32:33;;;;;;;3.20;1.30;;;7.90;99.90;;;;;;5091173;28;20240;-73
2023/04/16 04:35:02;;;;;;;2.63;1.00;;;7.80;99.90;;;;;;5091499;28;20252;-73
2023/04/16 04:37:29;;;;;;;6.33;1.87;;;7.80;99.90;;;;;;5091087;28;20198;-73
2023/04/16 04:39:56;;;;;;;4.37;1.17;;;7.70;99.90;;;;;;5091567;28;20640;-73
2023/04/16 04:42:24;;;;;;;7.07;2.03;;;7.80;99.90;;;;;;5091794;28;20202;-74
2023/04/16 04:44:51;;;;;;;2.73;1.40;;;7.80;99.90;;;;;;5091388;28;20264;-73
2023/04/16 04:47:19;;;;;;;5.07;0.87;;;7.90;99.90;;;;;;5091349;28;20243;-73
2023/04/16 04:49:46;;;;;;;7.77;1.90;;;8.00;99.90;;;;;;5090496;28;20233;-73
2023/04/16 04:52:14;;;;;;;7.60;1.83;;;8.00;99.90;;;;;;5091371;28;20282;-73
2023/04/16 04:54:41;;;;;;;4.70;1.53;;;8.00;99.90;;;;;;5090944;28;20202;-73
2023/04/16 04:57:08;;;;;;;5.83;1.90;;;8.00;99.90;;;;;;5090723;28;20610;-73
2023/04/16 04:59:35;;;;;;;2.20;1.40;;;8.00;99.90;;;;;;5090348;28;20694;-73
2023/04/16 05:02:02;;;;;;;2.33;1.30;;;7.90;99.90;;;;;;5090882;28;20245;-73
2023/04/16 05:04:30;;;;;;;3.17;1.70;;;7.90;99.90;;;;;;5090269;28;20583;-73
2023/04/16 05:06:57;;;;;;;6.00;1.80;;;7.80;99.90;;;;;;5091207;28;20229;-73
2023/04/16 05:09:25;;;;;;;4.10;1.53;;;7.90;99.90;;;;;;5091476;28;20240;-73
2023/04/16 05:11:52;;;;;;;4.27;1.90;;;7.80;99.90;;;;;;5090898;28;20270;-74
2023/04/16 05:14:19;;;;;;;4.07;1.83;;;7.70;99.90;;;;;;5090668;28;20233;-74
2023/04/16 05:16:46;;;;;;;4.13;2.43;;;7.60;99.90;;;;;;5102042;28;20258;-75
2023/04/16 05:19:13;;;;;;;3.67;1.30;;;7.70;99.90;;;;;;5111393;28;20205;-75
2023/04/16 05:21:41;;;;;;;2.87;1.13;;;7.80;99.90;;;;;;5109981;28;20692;-74
2023/04/16 05:24:08;;;;;;;4.87;2.73;;;7.70;99.90;;;;;;5110301;28;20584;-75
2023/04/16 05:26:35;;;;;;;6.53;2.70;;;7.80;99.90;;;;;;5109081;28;20232;-74
2023/04/16 05:29:02;;;;;;;5.17;1.90;;;7.90;99.90;;;;;;5111124;28;20204;-74
2023/04/16 05:31:28;;;;;;;3.67;1.57;;;7.90;99.90;;;;;;5110744;28;20236;-75
2023/04/16 05:33:55;;;;;;;4.33;1.57;;;7.80;99.90;;;;;;5111079;28;20243;-75
2023/04/16 05:36:22;;;;;;;3.70;2.33;;;7.80;99.90;;;;;;5111403;28;20240;-74
2023/04/16 05:38:50;;;;;;;6.60;1.73;;;7.80;99.90;;;;;;5110793;28;20680;-75
2023/04/16 05:41:17;;;;;;;6.87;3.17;;;7.90;99.90;;;;;;5111281;28;20669;-74
2023/04/16 05:43:44;;;;;;;8.00;1.57;;;8.00;99.90;;;;;;5113839;28;20692;-75
2023/04/16 05:46:11;;;;;;;4.67;2.63;;;8.00;99.90;;;;;;5115079;28;20275;-75
2023/04/16 05:48:38;;;;;;;7.70;2.03;;;8.00;99.90;;;;;;5114898;28;20240;-74
2023/04/16 05:51:05;;;;;;;6.67;1.70;;;8.10;99.90;;;;;;5115276;28;20297;-75
2023/04/16 05:53:32;;;;;;;4.73;2.13;;;8.20;99.90;;;;;;5114785;28;20239;-75
2023/04/16 05:56:00;;;;;;;5.37;1.90;;;8.20;99.90;;;;;;5114920;28;20236;-75
2023/04/16 05:58:27;;;;;;;4.70;1.60;;;8.30;99.90;;;;;;5114290;28;20273;-75
2023/04/16 06:00:54;;;;;;;4.30;1.60;;;8.40;99.90;;;;;;5115579;28;20285;-75
2023/04/16 06:03:21;;;;;;;7.80;2.37;;;8.30;99.90;;;;;;5115120;28;20688;-75
2023/04/16 06:05:48;;;;;;;5.67;1.83;;;8.40;99.90;;;;;;5114569;28;20263;-74
2023/04/16 06:08:15;;;;;;;2.60;1.57;;;8.40;99.90;;;;;;5114849;28;20244;-73
2023/04/16 06:10:42;;;;;;;5.03;1.60;;;8.40;99.90;;;;;;5114220;28;20688;-75
2023/04/16 06:13:10;;;;;;;5.07;1.77;;;8.30;99.90;;;;;;5112611;28;20229;-75
2023/04/16 06:15:37;;;;;;;5.17;1.77;;;8.40;99.90;;;;;;5113745;28;20287;-76
2023/04/16 06:18:04;;;;;;;6.30;1.60;;;8.40;99.90;;;;;;5118936;27;20228;-74
2023/04/16 06:20:32;;;;;;;7.07;1.43;;;8.50;99.90;;;;;;5117015;27;20209;-75
2023/04/16 06:22:59;;;;;;;9.47;3.17;;;8.60;99.90;;;;;;5114515;28;20703;-74
2023/04/16 06:25:26;;;;;;;4.07;2.13;;;8.70;99.90;;;;;;5113740;28;20289;-76
2023/04/16 06:27:53;;;;;;;7.30;1.20;;;8.80;99.90;;;;;;5114613;28;20235;-75
2023/04/16 06:30:21;;;;;;;2.53;1.90;;;8.80;99.90;;;;;;5114932;28;20285;-76
2023/04/16 06:32:49;;;;;;;3.70;1.40;;;8.90;99.90;;;;;;5113945;28;20609;-78
2023/04/16 06:35:18;;;;;;;4.60;1.90;;;9.10;99.90;;;;;;5114169;28;20615;-79
2023/04/16 06:37:45;;;;;;;4.73;1.20;;;9.20;99.90;;;;;;5113931;28;20257;-76
2023/04/16 06:40:13;;;;;;;3.17;1.63;;;9.20;99.90;;;;;;5113664;28;20236;-77
2023/04/16 06:42:40;;;;;;;2.90;1.83;;;9.40;99.90;;;;;;5113819;28;20240;-77
2023/04/16 06:45:08;;;;;;;6.40;2.53;;;9.50;99.90;;;;;;5113979;28;20225;-76
2023/04/16 06:47:36;;;;;;;6.30;1.37;;;9.50;99.90;;;;;;5113800;28;20297;-76
2023/04/16 06:50:04;;;;;;;5.13;1.63;;;9.50;99.90;;;;;;5114121;28;20240;-77
2023/04/16 06:52:30;;;;;;;3.50;1.40;;;9.70;99.90;;;;;;5112375;28;20316;-76
2023/04/16 06:54:57;;;;;;;5.40;1.90;;;9.70;99.90;;;;;;5118910;27;20298;-76
2023/04/16 06:57:25;;;;;;;3.67;1.83;;;9.80;99.90;;;;;;5134990;27;20228;-75
2023/04/16 06:59:51;;;;;;;6.83;2.00;;;9.90;99.90;;;;;;5120886;27;20727;-76
2023/04/16 07:02:18;;;;;;;4.10;2.00;;;10.00;99.90;;;;;;5113887;28;20229;-75
2023/04/16 07:04:47;;;;;;;3.77;1.43;;;10.20;99.90;;;;;;5112810;28;20232;-74
2023/04/16 07:07:14;;;;;;;8.73;1.73;;;10.20;99.90;;;;;;5113356;28;20240;-78
2023/04/16 07:09:40;;;;;;;2.70;2.07;;;10.30;99.90;;;;;;5113134;28;20240;-74
2023/04/16 07:12:08;;;;;;;3.37;2.37;;;10.40;99.90;;;;;;5112913;27;20244;-76
2023/04/16 07:14:35;;;;;;;3.17;1.80;;;10.40;99.90;;;;;;5113021;28;20211;-76
2023/04/16 07:17:01;;;;;;;2.53;1.87;;;10.50;99.90;;;;;;5128236;27;20204;-77
2023/04/16 07:19:31;;;;;;;5.67;1.97;;;10.50;99.90;;;;;;5133659;27;20232;-75
2023/04/16 07:21:59;;;;;;;2.73;1.57;;;10.50;99.90;;;;;;5133884;27;20235;-76
2023/04/16 07:24:26;;;;;;;5.70;2.13;;;10.50;99.90;;;;;;5115701;27;20288;-77
2023/04/16 07:26:53;;;;;;;4.63;1.80;;;10.60;99.90;;;;;;5112247;28;20664;-78
2023/04/16 07:29:20;;;;;;;5.77;1.83;;;10.70;99.90;;;;;;5113248;28;20270;-78
2023/04/16 07:31:47;;;;;;;3.87;1.40;;;10.90;99.90;;;;;;5110205;28;20647;-78
2023/04/16 07:34:14;;;;;;;4.33;2.13;;;10.90;99.90;;;;;;5112265;28;20640;-77
2023/04/16 07:36:41;;;;;;;6.50;1.97;;;11.10;99.90;;;;;;5112614;28;20255;-77
2023/04/16 07:39:11;;;;;;;6.13;1.93;;;11.30;99.90;;;;;;5112119;27;20197;-76
2023/04/16 07:41:40;;;;;;;3.92;2.47;;;11.20;99.90;;;;;;5112472;28;20213;-77
2023/04/16 07:44:06;;;;;;;6.38;2.13;;;11.30;99.90;;;;;;5112734;28;20205;-74
2023/04/16 07:46:33;;;;;;;2.90;1.50;;;11.40;99.90;;;;;;5120613;27;20266;-74
2023/04/16 07:49:00;;;;;;;6.95;2.88;;;11.40;99.90;;;;;;5120365;27;20204;-75
2023/04/16 07:51:27;;;;;;;5.43;1.73;;;11.30;99.90;;;;;;5111385;27;20676;-75
2023/04/16 07:53:54;;;;;;;2.03;1.85;;;11.40;99.90;;;;;;5114938;27;20236;-76
2023/04/16 07:56:23;;;;;;;2.03;1.67;;;11.50;99.90;;;;;;5112793;28;20236;-74
2023/04/16 07:58:50;;;;;;;5.73;1.60;;;11.60;99.90;;;;;;5112531;28;20226;-74
2023/04/16 08:01:16;;;;;;;10.70;2.53;;;11.70;99.90;;;;;;5110094;28;20232;-77
2023/04/16 08:03:43;;;;;;;4.55;1.90;;;11.90;99.90;;;;;;5111355;28;20244;-74
2023/04/16 08:06:10;;;;;;;5.20;1.77;;;11.90;99.90;;;;;;5121526;27;20297;-76
2023/04/16 08:08:37;;;;;;;4.57;2.10;;;12.00;99.90;;;;;;5111350;28;20236;-75
2023/04/16 08:11:04;;;;;;;3.15;1.60;;;12.20;99.90;;;;;;5111973;28;20244;-74
2023/04/16 08:13:33;;;;;;;3.67;1.23;;;12.50;99.90;;;;;;5110488;28;20204;-74
2023/04/16 08:15:59;;;;;;;3.63;2.17;;;12.60;99.90;;;;;;5110266;28;20322;-76
2023/04/16 08:18:26;;;;;;;4.72;1.50;;;12.60;99.90;;;;;;5111805;28;20267;-76
2023/04/16 08:20:53;;;;;;;4.13;1.10;;;12.70;99.90;;;;;;5112582;28;20236;-76
2023/04/16 08:23:20;;;;;;;5.82;1.50;;;12.90;99.90;;;;;;5116725;27;20240;-73
2023/04/16 08:25:47;;;;;;;8.40;2.58;;;12.90;99.90;;;;;;5122589;27;20258;-74
2023/04/16 08:28:14;;;;;;;8.70;2.40;;;13.00;99.90;;;;;;5122433;27;20239;-73
2023/04/16 08:30:44;;;;;;;3.13;1.38;;;13.30;99.90;;;;;;5111487;28;20285;-80
2023/04/16 08:33:12;;;;;;;3.38;1.50;;;13.50;99.90;;;;;;5112235;28;20209;-77
2023/04/16 08:35:39;;;;;;;2.72;1.33;;;13.40;99.90;;;;;;5109715;27;20299;-76
2023/04/16 08:38:07;;;;;;;3.10;2.00;;;13.60;99.90;;;;;;5106588;27;20624;-73
2023/04/16 08:40:38;;;;;;;3.85;1.65;;;13.40;99.90;;;;;;5106648;27;20710;-74
2023/04/16 08:43:09;;;;;;;3.20;1.42;;;13.30;99.90;;;;;;5111466;28;20219;-73
2023/04/16 08:45:38;;;;;;;6.10;1.70;;;13.50;99.90;;;;;;5111312;28;20264;-76
2023/04/16 08:48:07;;;;;;;2.30;1.35;;;13.70;99.90;;;;;;5111752;28;20252;-75
2023/04/16 08:50:35;;;;;;;4.78;1.20;;;14.10;99.90;;;;;;5109745;28;20244;-75
2023/04/16 08:53:05;;;;;;;4.20;1.20;;;13.90;99.90;;;;;;5111538;28;20200;-76
2023/04/16 08:55:37;;;;;;;1.83;1.50;;;13.70;99.90;;;;;;5110650;28;20296;-76
2023/04/16 08:58:08;;;;;;;4.00;1.58;;;13.90;99.90;;;;;;5110832;28;20208;-77
2023/04/16 09:00:37;;;;;;;1.77;1.20;;;14.00;99.90;;;;;;5111035;28;20228;-76
2023/04/16 09:03:06;;;;;;;1.58;1.35;;;14.30;99.90;;;;;;5111595;28;20239;-77
2023/04/16 09:05:33;;;;;;;4.50;1.48;;;14.60;99.90;;;;;;5110631;28;20755;-76
2023/04/16 09:08:00;;;;;;;3.05;1.42;;;15.00;99.90;;;;;;5111549;28;20231;-79
2023/04/16 09:10:27;;;;;;;1.98;1.17;;;14.90;99.90;;;;;;5111176;28;20216;-76
2023/04/16 09:12:56;;;;;;;4.63;1.10;;;14.60;99.90;;;;;;5111786;28;20633;-77
2023/04/16 09:15:24;;;;;;;2.55;1.15;;;14.40;99.90;;;;;;5111737;28;20289;-77
2023/04/16 09:17:51;;;;;;;3.60;1.50;;;14.20;99.90;;;;;;5111247;28;20656;-76
2023/04/16 09:20:20;;;;;;;2.67;1.30;;;14.20;99.90;;;;;;5111065;28;20201;-77
2023/04/16 09:22:47;;;;;;;2.15;1.23;;;14.20;99.90;;;;;;5110909;28;20695;-77
2023/04/16 09:25:14;;;;;;;3.35;1.60;;;14.00;99.90;;;;;;5111463;28;20201;-76
2023/04/16 09:27:41;;;;;;;4.10;1.35;;;14.10;99.90;;;;;;5110978;28;20623;-77
2023/04/16 09:30:21;;;;;;;3.53;1.38;;;14.00;99.90;;;;;;5111350;28;20250;-76
2023/04/16 09:32:49;;;;;;;1.83;1.23;;;14.30;99.90;;;;;;5109655;28;20231;-77
2023/04/16 09:35:19;;;;;;;1.40;1.30;;;14.80;99.90;;;;;;5110410;28;20312;-77
2023/04/16 09:37:56;;;;;;;2.83;1.55;;;15.30;99.90;;;;;;5110367;28;20667;-77
2023/04/16 09:40:29;;;;;;;3.05;1.20;;;15.00;99.90;;;;;;5111259;28;20219;-77
2023/04/16 09:42:59;;;;;;;4.70;2.22;;;15.20;99.90;;;;;;5110910;28;20226;-75
2023/04/16 09:45:30;;;;;;;2.80;1.50;;;15.30;99.90;;;;;;5110694;28;20578;-75
2023/04/16 09:48:05;;;;;;;1.30;1.17;;;15.60;99.90;;;;;;5111167;28;20243;-78
2023/04/16 09:50:33;;;;;;;5.18;1.52;;;15.70;99.90;;;;;;5110388;28;20206;-78
2023/04/16 09:53:02;;;;;;;4.03;1.58;;;16.20;99.90;;;;;;5110984;28;20233;-77
2023/04/16 09:55:29;;;;;;;4.68;1.15;;;16.20;99.90;;;;;;5110736;28;20197;-77
2023/04/16 09:58:00;;;;;;;2.85;1.85;;;15.80;99.90;;;;;;5111054;28;20212;-76
2023/04/16 10:00:29;;;;;;;2.22;1.33;;;16.10;99.90;;;;;;5110639;28;20659;-77
2023/04/16 10:03:04;;;;;;;4.43;1.77;;;16.10;99.90;;;;;;5110811;28;20573;-78
2023/04/16 10:05:32;;;;;;;4.07;1.58;;;16.40;99.90;;;;;;5110394;28;20211;-77
2023/04/16 10:08:00;;;;;;;4.30;1.23;;;16.60;99.90;;;;;;5110998;28;20201;-77
2023/04/16 10:10:27;;;;;;;1.67;1.15;;;16.30;99.90;;;;;;5110273;28;20576;-76
2023/04/16 10:12:55;;;;;;;3.30;1.20;;;16.60;99.90;;;;;;5111409;28;20228;-77
2023/04/16 10:15:22;;;;;;;4.57;1.75;;;15.40;99.90;;;;;;5111205;28;20240;-77
2023/04/16 10:17:50;;;;;;;1.25;0.90;;;15.50;99.90;;;;;;5109804;28;20243;-77
2023/04/16 10:20:18;;;;;;;3.40;1.88;;;15.10;99.90;;;;;;5108916;28;20229;-77
2023/04/16 10:22:47;;;;;;;2.13;1.42;;;15.70;99.90;;;;;;5110203;28;20240;-77
2023/04/16 10:25:14;;;;;;;2.38;1.30;;;15.40;99.90;;;;;;5110366;28;20696;-75
2023/04/16 10:27:41;;;;;;;4.82;2.67;;;15.90;99.90;;;;;;5110084;28;20282;-75
2023/04/16 10:30:10;;;;;;;1.77;1.20;;;16.00;99.90;;;;;;5112750;28;20244;-77
2023/04/16 10:32:38;;;;;;;4.03;1.50;;;15.90;99.90;;;;;;5112453;28;20240;-74
2023/04/16 10:35:06;;;;;;;1.35;0.95;;;15.60;99.90;;;;;;5118647;27;20244;-74
2023/04/16 10:37:33;;;;;;;1.73;1.20;;;15.60;99.90;;;;;;5122767;27;20220;-75
2023/04/16 10:40:21;;;;;;;2.70;1.17;;;15.80;99.90;;;;;;5119980;27;20249;-75
2023/04/16 10:42:54;;;;;;;1.10;0.80;;;15.80;99.90;;;;;;5134310;27;20239;-74
2023/04/16 10:45:27;;;;;;;1.50;1.20;;;15.20;99.90;;;;;;5104897;27;20294;-75
2023/04/16 10:47:56;;;;;;;1.60;1.02;;;15.00;99.90;;;;;;5134432;27;20279;-75
2023/04/16 10:50:23;;;;;;;3.55;1.67;;;15.30;99.90;;;;;;5118882;27;20207;-73
2023/04/16 10:53:21;;;;;;;3.42;1.55;;;16.20;99.90;;;;;;5114217;28;20228;-73
2023/04/16 10:56:12;;;;;;;3.55;1.25;;;16.50;99.90;;;;;;5113031;28;20240;-75
2023/04/16 10:58:39;;;;;;;1.75;1.02;;;15.70;99.90;;;;;;5113580;28;20200;-73
2023/04/16 11:01:13;;;;;;;1.73;0.95;;;15.50;99.90;;;;;;5113622;28;20211;-74
2023/04/16 11:03:45;;;;;;;2.25;1.10;;;15.40;99.90;;;;;;5113152;28;20624;-74
2023/04/16 11:06:13;;;;;;;2.45;1.52;;;15.40;99.90;;;;;;5113262;28;20224;-75
2023/04/16 11:08:42;;;;;;;1.88;1.10;;;16.00;99.90;;;;;;5112284;28;20563;-76
2023/04/16 11:11:11;;;;;;;4.05;1.60;;;15.70;99.90;;;;;;5111703;27;20699;-79
2023/04/16 11:13:38;;;;;;;3.17;1.40;;;15.60;99.90;;;;;;5113217;28;20349;-74
2023/04/16 11:16:05;;;;;;;3.25;1.17;;;15.50;99.90;;;;;;5113322;28;20201;-74
2023/04/16 11:18:32;;;;;;;2.47;1.40;;;15.80;99.90;;;;;;5113240;28;20207;-75
2023/04/16 11:20:59;;;;;;;4.18;1.50;;;16.00;99.90;;;;;;5113588;28;20288;-74
2023/04/16 11:23:26;;;;;;;1.63;1.42;;;15.60;99.90;;;;;;5112888;28;20236;-74
2023/04/16 11:25:56;;;;;;;4.43;1.60;;;15.60;99.90;;;;;;5113768;28;20233;-73
2023/04/16 11:28:34;;;;;;;1.33;0.90;;;15.70;99.90;;;;;;5113702;28;20201;-75
2023/04/16 11:31:11;;;;;;;2.83;1.50;;;16.20;99.90;;;;;;5111240;28;20225;-73
2023/04/16 11:33:38;;;;;;;1.83;1.15;;;16.80;99.90;;;;;;5112237;28;20299;-74
2023/04/16 11:36:05;;;;;;;2.38;1.38;;;16.50;99.90;;;;;;5112606;28;20686;-74
2023/04/16 11:38:35;;;;;;;6.57;2.13;;;16.50;99.90;;;;;;5112619;28;20672;-74
2023/04/16 11:41:02;;;;;;;5.93;1.48;;;16.90;99.90;;;;;;5112983;28;20197;-74
2023/04/16 11:43:29;;;;;;;2.17;1.77;;;16.90;99.90;;;;;;5112793;28;20228;-78
2023/04/16 11:45:59;;;;;;;2.75;1.45;;;17.00;99.90;;;;;;5112631;28;20251;-73
2023/04/16 11:48:45;;;;;;;5.53;2.25;;;17.00;99.90;;;;;;5112472;28;20320;-72
2023/04/16 11:51:12;;;;;;;3.88;1.90;;;17.00;99.90;;;;;;5112616;28;20750;-73
2023/04/16 11:53:46;;;;;;;4.55;1.77;;;17.30;99.90;;;;;;5112493;28;20619;-74
2023/04/16 11:56:13;;;;;;;2.88;1.20;;;17.30;99.90;;;;;;5112804;28;20236;-74
2023/04/16 11:58:40;;;;;;;4.45;1.88;;;16.80;99.90;;;;;;5110860;27;20692;-73
2023/04/16 12:01:10;;;;;;;1.30;1.05;;;16.60;99.90;;;;;;5111094;27;20654;-74
2023/04/16 12:03:44;;;;;;;1.70;1.30;;;16.90;99.90;;;;;;5109350;28;20676;-73
2023/04/16 12:06:11;;;;;;;1.52;1.42;;;17.30;99.90;;;;;;5109301;28;20228;-72
2023/04/16 12:08:38;;;;;;;3.28;2.25;;;17.60;99.90;;;;;;5117169;27;20651;-73
2023/04/16 12:11:05;;;;;;;3.05;1.35;;;17.50;99.90;;;;;;5121296;27;20244;-76
2023/04/16 12:13:38;;;;;;;1.65;1.20;;;17.50;99.90;;;;;;5119733;27;20228;-72
2023/04/16 12:16:19;;;;;;;3.28;1.40;;;16.40;99.90;;;;;;5120076;27;20680;-77
2023/04/16 12:19:03;;;;;;;5.78;1.40;;;15.60;99.90;;;;;;5118356;27;20193;-73
2023/04/16 12:21:37;;;;;;;3.53;1.52;;;16.10;99.90;;;;;;5119540;27;20292;-73
2023/04/16 12:24:05;;;;;;;4.40;1.30;;;16.70;99.90;;;;;;5118257;27;20656;-74
2023/04/16 12:26:41;;;;;;;3.30;1.20;;;17.40;99.90;;;;;;5120956;27;20224;-73
2023/04/16 12:29:21;;;;;;;2.33;1.50;;;16.60;99.90;;;;;;5116809;27;20228;-76
2023/04/16 12:31:51;;;;;;;1.83;1.73;;;16.60;99.90;;;;;;5114997;27;20257;-73
2023/04/16 12:34:18;;;;;;;3.47;2.58;;;17.00;99.90;;;;;;5110437;28;20196;-76
2023/04/16 12:36:46;;;;;;;2.95;1.52;;;17.20;99.90;;;;;;5110852;28;20248;-74
2023/04/16 12:39:15;;;;;;;2.35;0.93;;;16.90;99.90;;;;;;5111650;27;20209;-76
2023/04/16 12:41:43;;;;;;;1.73;1.42;;;16.50;99.90;;;;;;5111258;28;20205;-78
2023/04/16 12:44:11;;;;;;;2.72;1.52;;;16.30;99.90;;;;;;5110286;28;20718;-76
2023/04/16 12:46:39;;;;;;;1.77;1.35;;;16.90;99.90;;;;;;5110458;28;20235;-74
2023/04/16 12:49:09;;;;;;;1.52;1.33;;;17.40;99.90;;;;;;5111516;28;20243;-73
2023/04/16 12:51:37;;;;;;;3.90;1.38;;;17.40;99.90;;;;;;5110452;28;20204;-74
2023/04/16 12:54:06;;;;;;;1.52;1.38;;;17.20;99.90;;;;;;5110870;28;20821;-73
2023/04/16 12:56:34;;;;;;;4.03;1.45;;;17.00;99.90;;;;;;5110664;28;20228;-74
2023/04/16 12:59:01;;;;;;;2.25;1.20;;;17.00;99.90;;;;;;5110232;28;20236;-73